Time;durP1;ratioP1;P1;durP2;ratioP2;P2;SDS_P1;SDS_P2;PMS_P1;PMS_P2;Temp;Humidity;BMP_temperature;BMP_pressure;BME280_temperature;BME280_humidity;BME280_pressure;Samples;Min_cycle;Max_cycle;Signal;HPM_P1;HPM_P2
2022/02/01 00:00:16;;;;;;;;;;;22.20;31.00;;;;;;467326;255;1173;-38
2022/02/01 00:02:20;;;;;;;;;;;22.20;30.90;;;;;;467185;254;1757;-38
2022/02/01 00:04:19;;;;;;;;;;;22.20;30.90;;;;;;467011;255;2048;-38
2022/02/01 00:06:23;;;;;;;;;;;22.20;30.90;;;;;;467376;252;2089;-38
2022/02/01 00:08:27;;;;;;;;;;;22.20;30.80;;;;;;467018;255;1335;-38
2022/02/01 00:10:33;;;;;;;;;;;22.20;30.90;;;;;;466830;255;2745;-38
2022/02/01 00:12:32;;;;;;;;;;;22.20;30.80;;;;;;466701;254;2065;-38
2022/02/01 00:14:31;;;;;;;;;;;22.20;30.80;;;;;;466992;254;2220;-38
2022/02/01 00:16:49;;;;;;;;;;;22.30;30.90;;;;;;467002;254;2422;-38
2022/02/01 00:33:26;;;;;;;;;;;22.40;30.80;;;;;;467310;254;1250;-38
2022/02/01 00:35:36;;;;;;;;;;;22.40;30.80;;;;;;467152;254;2172;-38
2022/02/01 00:37:36;;;;;;;;;;;22.40;30.70;;;;;;467434;254;1476;-38
2022/02/01 00:39:42;;;;;;;;;;;22.40;30.70;;;;;;467237;254;2016;-38
2022/02/01 00:41:39;;;;;;;;;;;22.40;30.70;;;;;;467185;254;2177;-38
2022/02/01 00:43:36;;;;;;;;;;;22.40;30.70;;;;;;467123;254;1795;-38
2022/02/01 00:45:37;;;;;;;;;;;22.40;30.70;;;;;;467370;252;2493;-38
2022/02/01 00:47:38;;;;;;;;;;;22.40;30.70;;;;;;467411;255;1223;-38
2022/02/01 00:49:40;;;;;;;;;;;22.40;30.70;;;;;;467620;255;980;-38
2022/02/01 00:51:41;;;;;;;;;;;22.50;30.70;;;;;;467617;255;1249;-39
2022/02/01 00:53:42;;;;;;;;;;;22.40;30.60;;;;;;467761;255;2146;-38
2022/02/01 00:55:43;;;;;;;;;;;22.50;30.70;;;;;;467320;255;1250;-38
2022/02/01 00:57:45;;;;;;;;;;;22.50;30.70;;;;;;467431;255;1220;-38
2022/02/01 00:59:46;;;;;;;;;;;22.50;30.70;;;;;;467375;255;1216;-39
2022/02/01 01:01:47;;;;;;;;;;;22.50;30.60;;;;;;467297;255;1258;-39
2022/02/01 01:03:49;;;;;;;;;;;22.50;30.60;;;;;;467360;255;1240;-38
2022/02/01 01:05:50;;;;;;;;;;;22.50;30.60;;;;;;467728;255;1471;-39
2022/02/01 01:07:51;;;;;;;;;;;22.50;30.60;;;;;;467288;255;1260;-38
2022/02/01 01:09:54;;;;;;;;;;;22.50;30.60;;;;;;467774;255;1249;-38
2022/02/01 01:11:56;;;;;;;;;;;22.50;30.60;;;;;;467263;255;1750;-38
2022/02/01 01:16:46;;;;;;;;;;;22.60;30.70;;;;;;444533;267;1294;-38
2022/02/01 01:19:03;;;;;;;;;;;22.50;30.60;;;;;;465948;255;2100;-38
2022/02/01 01:44:07;;;;;;;;;;;22.60;30.60;;;;;;467418;254;1003;-38
2022/02/01 01:46:28;;;;;;;;;;;22.70;30.60;;;;;;467523;254;2103;-38
2022/02/01 01:53:12;;;;;;;;;;;22.70;30.60;;;;;;467351;254;1171;-38
2022/02/01 01:55:11;;;;;;;;;;;22.70;30.60;;;;;;467657;254;2327;-39
2022/02/01 01:57:12;;;;;;;;;;;22.70;30.60;;;;;;467279;255;1141;-38
2022/02/01 01:59:13;;;;;;;;;;;22.70;30.60;;;;;;467639;255;1195;-39
2022/02/01 02:01:15;;;;;;;;;;;22.70;30.60;;;;;;467420;255;1245;-38
2022/02/01 02:03:16;;;;;;;;;;;22.70;30.60;;;;;;467386;255;1227;-38
2022/02/01 02:05:17;;;;;;;;;;;22.70;30.60;;;;;;467409;255;1149;-38
2022/02/01 02:07:19;;;;;;;;;;;22.70;30.60;;;;;;467530;255;1222;-38
2022/02/01 02:09:20;;;;;;;;;;;22.70;30.50;;;;;;467401;255;1243;-38
2022/02/01 02:11:26;;;;;;;;;;;22.70;30.50;;;;;;467555;255;1253;-39
2022/02/01 02:15:49;;;;;;;;;;;22.70;30.50;;;;;;467333;254;1429;-38
2022/02/01 02:17:43;;;;;;;;;;;22.70;30.50;;;;;;466837;255;2074;-38
2022/02/01 02:19:44;;;;;;;;;;;22.70;30.50;;;;;;467538;255;1069;-38
2022/02/01 02:21:46;;;;;;;;;;;22.70;30.50;;;;;;467181;255;1335;-38
2022/02/01 02:23:47;;;;;;;;;;;22.70;30.50;;;;;;467357;255;1245;-38
2022/02/01 02:25:49;;;;;;;;;;;22.70;30.50;;;;;;467677;251;1198;-38
2022/02/01 02:27:50;;;;;;;;;;;22.80;30.60;;;;;;467570;255;1176;-38
2022/02/01 02:29:51;;;;;;;;;;;22.70;30.50;;;;;;467504;255;1370;-38
2022/02/01 02:31:53;;;;;;;;;;;22.80;30.60;;;;;;467570;255;1147;-38
2022/02/01 02:33:54;;;;;;;;;;;22.80;30.60;;;;;;467343;255;2174;-38
2022/02/01 02:35:57;;;;;;;;;;;22.80;30.60;;;;;;467292;255;1248;-38
2022/02/01 02:37:56;;;;;;;;;;;22.80;30.50;;;;;;467209;254;2189;-39
2022/02/01 02:40:15;;;;;;;;;;;22.80;30.60;;;;;;467613;255;1070;-38
2022/02/01 02:42:12;;;;;;;;;;;22.80;30.60;;;;;;466525;255;1902;-38
2022/02/01 02:46:50;;;;;;;;;;;22.80;30.50;;;;;;444382;267;1469;-38
2022/02/01 02:48:51;;;;;;;;;;;22.80;30.60;;;;;;444341;268;1215;-39
2022/02/01 02:50:52;;;;;;;;;;;22.80;30.50;;;;;;444328;268;1184;-38
2022/02/01 02:52:54;;;;;;;;;;;22.80;30.60;;;;;;465658;254;1338;-38
2022/02/01 02:54:55;;;;;;;;;;;22.80;30.60;;;;;;467805;255;2136;-38
2022/02/01 02:56:56;;;;;;;;;;;22.80;30.50;;;;;;467353;255;1169;-38
2022/02/01 02:58:58;;;;;;;;;;;22.80;30.50;;;;;;467371;255;1084;-39
2022/02/01 03:00:59;;;;;;;;;;;22.80;30.60;;;;;;467303;255;1258;-38
2022/02/01 03:03:01;;;;;;;;;;;22.80;30.60;;;;;;467738;255;1106;-38
2022/02/01 03:05:02;;;;;;;;;;;22.80;30.60;;;;;;467362;255;1229;-38
2022/02/01 03:07:03;;;;;;;;;;;22.80;30.50;;;;;;467687;255;1298;-38
2022/02/01 03:09:04;;;;;;;;;;;22.80;30.50;;;;;;467664;255;1130;-38
2022/02/01 03:11:11;;;;;;;;;;;22.80;30.50;;;;;;467312;255;1577;-38
2022/02/01 03:13:11;;;;;;;;;;;22.80;30.50;;;;;;467039;255;2256;-38
2022/02/01 03:15:24;;;;;;;;;;;22.90;30.60;;;;;;467377;254;2197;-38
2022/02/01 03:17:20;;;;;;;;;;;22.90;30.50;;;;;;466389;255;2298;-38
2022/02/01 03:21:34;;;;;;;;;;;22.90;30.50;;;;;;467521;251;1202;-38
2022/02/01 03:23:36;;;;;;;;;;;22.90;30.60;;;;;;467869;255;1117;-38
2022/02/01 03:25:36;;;;;;;;;;;22.90;30.60;;;;;;467858;255;1061;-38
2022/02/01 03:27:38;;;;;;;;;;;22.90;30.50;;;;;;467788;255;1284;-38
2022/02/01 03:29:39;;;;;;;;;;;22.90;30.60;;;;;;467768;255;1086;-38
2022/02/01 03:31:40;;;;;;;;;;;22.90;30.60;;;;;;467610;251;1280;-38
2022/02/01 03:33:42;;;;;;;;;;;22.90;30.60;;;;;;467384;255;1314;-38
2022/02/01 03:35:43;;;;;;;;;;;22.80;30.60;;;;;;467721;255;2200;-38
2022/02/01 03:37:44;;;;;;;;;;;22.90;30.60;;;;;;467328;255;1258;-38
2022/02/01 03:39:46;;;;;;;;;;;22.90;30.60;;;;;;467685;255;1074;-38
2022/02/01 03:41:47;;;;;;;;;;;22.90;30.60;;;;;;467312;251;1301;-38
2022/02/01 03:43:48;;;;;;;;;;;22.90;30.50;;;;;;467575;255;1217;-38
2022/02/01 03:45:50;;;;;;;;;;;22.90;30.50;;;;;;467769;255;1438;-38
2022/02/01 03:47:51;;;;;;;;;;;22.90;30.60;;;;;;467733;255;1204;-38
2022/02/01 03:49:54;;;;;;;;;;;22.90;30.60;;;;;;467492;255;1270;-38
2022/02/01 03:51:58;;;;;;;;;;;22.90;30.60;;;;;;467160;255;2377;-38
2022/02/01 03:53:55;;;;;;;;;;;22.90;30.50;;;;;;467054;255;2068;-38
2022/02/01 03:55:56;;;;;;;;;;;22.90;30.50;;;;;;467288;255;2121;-38
2022/02/01 03:57:58;;;;;;;;;;;22.90;30.50;;;;;;467282;255;1174;-38
2022/02/01 03:59:59;;;;;;;;;;;22.90;30.50;;;;;;467781;255;1233;-38
2022/02/01 04:02:00;;;;;;;;;;;22.90;30.60;;;;;;467405;255;1341;-38
2022/02/01 04:04:01;;;;;;;;;;;22.90;30.50;;;;;;467488;255;1222;-38
2022/02/01 04:06:03;;;;;;;;;;;22.90;30.50;;;;;;467293;255;1367;-38
2022/02/01 04:08:04;;;;;;;;;;;23.00;30.50;;;;;;467327;255;1480;-38
2022/02/01 04:10:05;;;;;;;;;;;23.00;30.50;;;;;;467309;255;1254;-38
2022/02/01 04:12:07;;;;;;;;;;;23.00;30.50;;;;;;467212;255;1329;-38
2022/02/01 04:14:08;;;;;;;;;;;23.00;30.50;;;;;;467451;255;1228;-38
2022/02/01 04:16:09;;;;;;;;;;;22.90;30.50;;;;;;467426;255;2192;-38
2022/02/01 04:18:11;;;;;;;;;;;22.90;30.50;;;;;;467288;255;1351;-38
2022/02/01 04:20:12;;;;;;;;;;;22.90;30.50;;;;;;467298;255;1238;-38
2022/02/01 04:22:15;;;;;;;;;;;23.00;30.60;;;;;;467214;255;1313;-38
2022/02/01 04:24:15;;;;;;;;;;;23.00;30.50;;;;;;467694;254;2197;-38
2022/02/01 04:26:16;;;;;;;;;;;23.00;30.60;;;;;;467304;255;1511;-38
2022/02/01 04:28:17;;;;;;;;;;;22.90;30.50;;;;;;467595;255;998;-38
2022/02/01 04:30:19;;;;;;;;;;;23.00;30.60;;;;;;467451;255;1063;-38
2022/02/01 04:32:20;;;;;;;;;;;22.90;30.50;;;;;;467269;255;1208;-38
2022/02/01 04:34:21;;;;;;;;;;;23.00;30.50;;;;;;467345;255;1529;-38
2022/02/01 04:36:22;;;;;;;;;;;23.00;30.50;;;;;;467170;251;2201;-38
2022/02/01 04:38:24;;;;;;;;;;;23.00;30.60;;;;;;467537;255;1054;-38
2022/02/01 04:40:25;;;;;;;;;;;23.00;30.50;;;;;;467485;255;1092;-38
2022/02/01 04:42:29;;;;;;;;;;;23.00;30.50;;;;;;467667;255;1172;-38
2022/02/01 04:44:29;;;;;;;;;;;23.00;30.60;;;;;;467203;255;2336;-38
2022/02/01 04:46:29;;;;;;;;;;;23.00;30.50;;;;;;467366;254;2261;-38
2022/02/01 04:48:30;;;;;;;;;;;23.00;30.50;;;;;;467443;255;1050;-38
2022/02/01 04:50:32;;;;;;;;;;;23.00;30.50;;;;;;467317;255;1212;-38
2022/02/01 04:52:33;;;;;;;;;;;23.00;30.50;;;;;;467303;255;1276;-38
2022/02/01 04:54:34;;;;;;;;;;;23.00;30.60;;;;;;467438;255;2197;-38
2022/02/01 04:56:36;;;;;;;;;;;23.00;30.50;;;;;;467554;255;1249;-38
2022/02/01 04:58:37;;;;;;;;;;;23.00;30.60;;;;;;467366;255;1051;-38
2022/02/01 05:00:39;;;;;;;;;;;23.00;30.50;;;;;;467490;255;1417;-38
2022/02/01 05:02:40;;;;;;;;;;;23.00;30.50;;;;;;467347;255;1185;-38
2022/02/01 05:04:41;;;;;;;;;;;23.00;30.50;;;;;;467483;255;1187;-38
2022/02/01 05:06:43;;;;;;;;;;;23.00;30.50;;;;;;467463;255;1494;-38
2022/02/01 05:08:44;;;;;;;;;;;23.00;30.50;;;;;;467680;255;1091;-38
2022/02/01 05:10:45;;;;;;;;;;;23.00;30.50;;;;;;467696;255;1058;-38
2022/02/01 05:12:47;;;;;;;;;;;23.00;30.50;;;;;;467293;255;1322;-38
2022/02/01 05:14:49;;;;;;;;;;;23.00;30.50;;;;;;467256;255;2197;-38
2022/02/01 05:16:58;;;;;;;;;;;23.00;30.50;;;;;;467104;255;2433;-38
2022/02/01 05:19:04;;;;;;;;;;;23.00;30.50;;;;;;467264;254;2285;-38
2022/02/01 05:21:06;;;;;;;;;;;23.00;30.50;;;;;;467104;254;2486;-38
2022/02/01 05:23:04;;;;;;;;;;;23.00;30.40;;;;;;467029;254;2153;-38
2022/02/01 05:25:05;;;;;;;;;;;23.00;30.40;;;;;;467706;255;1169;-38
2022/02/01 05:27:08;;;;;;;;;;;23.10;30.50;;;;;;467435;255;1304;-38
2022/02/01 05:29:08;;;;;;;;;;;23.10;30.50;;;;;;467526;254;2421;-38
2022/02/01 05:31:09;;;;;;;;;;;23.10;30.50;;;;;;467432;255;1412;-38
2022/02/01 05:33:10;;;;;;;;;;;23.00;30.50;;;;;;467265;255;1190;-38
2022/02/01 05:35:11;;;;;;;;;;;23.10;30.50;;;;;;467537;255;2141;-38
2022/02/01 05:37:13;;;;;;;;;;;23.10;30.50;;;;;;467152;255;1313;-38
2022/02/01 05:39:14;;;;;;;;;;;23.10;30.50;;;;;;467197;255;1094;-38
2022/02/01 05:41:15;;;;;;;;;;;23.10;30.50;;;;;;467255;255;1106;-38
2022/02/01 05:43:21;;;;;;;;;;;23.10;30.50;;;;;;467342;255;1249;-38
2022/02/01 05:45:18;;;;;;;;;;;22.90;30.70;;;;;;466932;255;2172;-38
2022/02/01 05:47:19;;;;;;;;;;;22.70;31.10;;;;;;467124;255;1209;-38
2022/02/01 05:49:21;;;;;;;;;;;22.40;31.40;;;;;;467174;255;1071;-38
2022/02/01 05:51:22;;;;;;;;;;;22.30;31.70;;;;;;467307;255;1277;-38
2022/02/01 05:53:23;;;;;;;;;;;22.20;31.90;;;;;;467269;255;1204;-38
2022/02/01 05:55:25;;;;;;;;;;;22.10;32.00;;;;;;467333;255;2197;-38
2022/02/01 05:57:26;;;;;;;;;;;22.00;32.00;;;;;;467164;255;1148;-38
2022/02/01 05:59:27;;;;;;;;;;;22.00;32.20;;;;;;467277;255;1273;-38
2022/02/01 06:01:29;;;;;;;;;;;21.90;32.30;;;;;;467012;252;1427;-38
2022/02/01 06:03:30;;;;;;;;;;;21.90;32.30;;;;;;467296;255;1264;-38
2022/02/01 06:05:31;;;;;;;;;;;21.90;32.40;;;;;;467562;255;1233;-38
2022/02/01 06:07:33;;;;;;;;;;;21.90;32.40;;;;;;467161;255;1515;-38
2022/02/01 06:09:34;;;;;;;;;;;21.80;32.40;;;;;;467155;255;1230;-38
2022/02/01 06:11:35;;;;;;;;;;;21.80;32.50;;;;;;467172;255;1151;-38
2022/02/01 06:13:38;;;;;;;;;;;21.80;32.60;;;;;;467197;255;1392;-38
2022/02/01 06:15:38;;;;;;;;;;;21.70;32.60;;;;;;466993;254;2201;-38
2022/02/01 06:17:39;;;;;;;;;;;21.70;32.60;;;;;;466909;255;1259;-38
2022/02/01 06:19:41;;;;;;;;;;;21.60;32.60;;;;;;467033;255;1263;-38
2022/02/01 06:21:42;;;;;;;;;;;21.60;32.70;;;;;;467055;255;1335;-38
2022/02/01 06:23:43;;;;;;;;;;;21.60;32.70;;;;;;466954;255;1241;-38
2022/02/01 06:25:49;;;;;;;;;;;21.60;32.80;;;;;;466996;255;1246;-38
2022/02/01 06:27:49;;;;;;;;;;;21.50;32.80;;;;;;467070;255;1559;-38
2022/02/01 06:29:51;;;;;;;;;;;21.50;32.80;;;;;;467246;255;1238;-38
2022/02/01 06:31:52;;;;;;;;;;;21.50;32.90;;;;;;466999;251;1347;-38
2022/02/01 06:33:53;;;;;;;;;;;21.50;32.90;;;;;;467021;255;1209;-38
2022/02/01 06:35:55;;;;;;;;;;;21.50;33.00;;;;;;466886;255;2201;-38
2022/02/01 06:37:56;;;;;;;;;;;21.50;32.90;;;;;;466886;255;1524;-38
2022/02/01 06:39:57;;;;;;;;;;;21.40;32.90;;;;;;467039;255;1412;-38
2022/02/01 06:41:58;;;;;;;;;;;21.40;33.00;;;;;;467141;251;1284;-38
2022/02/01 06:44:00;;;;;;;;;;;21.40;33.00;;;;;;466961;255;1093;-38
2022/02/01 06:46:01;;;;;;;;;;;21.40;33.00;;;;;;466920;255;1198;-38
2022/02/01 06:48:02;;;;;;;;;;;21.40;33.00;;;;;;467035;255;1370;-38
2022/02/01 06:50:04;;;;;;;;;;;21.40;33.10;;;;;;467109;255;1164;-38
2022/02/01 06:52:05;;;;;;;;;;;21.40;33.20;;;;;;467080;255;1307;-38
2022/02/01 06:54:07;;;;;;;;;;;21.40;33.10;;;;;;466951;255;1107;-38
2022/02/01 06:56:11;;;;;;;;;;;21.30;33.10;;;;;;466888;255;2205;-38
2022/02/01 06:58:09;;;;;;;;;;;21.30;33.00;;;;;;466695;254;2006;-38
2022/02/01 07:00:10;;;;;;;;;;;21.30;33.10;;;;;;466952;255;1258;-38
2022/02/01 07:02:12;;;;;;;;;;;21.30;33.10;;;;;;467067;255;1303;-38
2022/02/01 07:04:13;;;;;;;;;;;21.30;33.10;;;;;;466967;255;1114;-38
2022/02/01 07:06:15;;;;;;;;;;;21.30;33.20;;;;;;466889;255;1385;-38
2022/02/01 07:08:16;;;;;;;;;;;21.30;33.20;;;;;;466915;255;1521;-38
2022/02/01 07:10:17;;;;;;;;;;;21.20;33.20;;;;;;466987;255;1135;-38
2022/02/01 07:12:19;;;;;;;;;;;21.20;33.20;;;;;;466922;255;1327;-38
2022/02/01 07:14:20;;;;;;;;;;;21.20;33.20;;;;;;466997;255;1109;-38
2022/02/01 07:16:21;;;;;;;;;;;21.20;33.20;;;;;;466860;255;2134;-38
2022/02/01 07:18:23;;;;;;;;;;;21.20;33.10;;;;;;466996;255;1223;-38
2022/02/01 07:20:24;;;;;;;;;;;21.20;33.10;;;;;;466831;255;1158;-38
2022/02/01 07:22:26;;;;;;;;;;;21.20;33.10;;;;;;466933;255;1254;-38
2022/02/01 07:24:29;;;;;;;;;;;21.20;33.10;;;;;;466897;255;2013;-38
2022/02/01 07:26:29;;;;;;;;;;;21.20;33.10;;;;;;466582;255;2260;-38
2022/02/01 07:28:30;;;;;;;;;;;21.20;33.10;;;;;;466882;254;2036;-38
2022/02/01 07:30:31;;;;;;;;;;;21.20;33.10;;;;;;466986;255;1231;-38
2022/02/01 07:32:32;;;;;;;;;;;21.30;33.00;;;;;;466818;255;1484;-38
2022/02/01 07:34:33;;;;;;;;;;;21.20;33.00;;;;;;465192;255;1125;-38
2022/02/01 07:36:35;;;;;;;;;;;21.30;33.00;;;;;;465124;255;2205;-38
2022/02/01 07:38:36;;;;;;;;;;;21.30;32.90;;;;;;465796;255;1306;-38
2022/02/01 07:40:38;;;;;;;;;;;21.30;32.90;;;;;;466512;255;1250;-38
2022/02/01 07:42:39;;;;;;;;;;;21.30;32.90;;;;;;466877;255;1286;-38
2022/02/01 07:44:40;;;;;;;;;;;21.30;32.80;;;;;;467355;255;1259;-38
2022/02/01 07:46:43;;;;;;;;;;;21.30;32.90;;;;;;466831;255;1089;-38
2022/02/01 07:48:43;;;;;;;;;;;21.30;32.80;;;;;;467358;254;2048;-38
2022/02/01 07:50:44;;;;;;;;;;;21.30;32.80;;;;;;466901;255;1332;-38
2022/02/01 07:52:45;;;;;;;;;;;21.30;32.70;;;;;;466867;255;1282;-38
2022/02/01 07:54:47;;;;;;;;;;;21.30;32.80;;;;;;466569;255;1085;-38
2022/02/01 07:56:48;;;;;;;;;;;21.30;32.80;;;;;;466631;255;2244;-38
2022/02/01 07:58:49;;;;;;;;;;;21.40;32.80;;;;;;467128;255;1046;-38
2022/02/01 08:00:51;;;;;;;;;;;21.40;32.70;;;;;;466609;255;1342;-38
2022/02/01 08:02:55;;;;;;;;;;;21.40;32.70;;;;;;466990;255;1119;-38
2022/02/01 08:04:54;;;;;;;;;;;21.40;32.70;;;;;;467159;254;1864;-38
2022/02/01 08:06:55;;;;;;;;;;;21.40;32.70;;;;;;466717;255;1460;-38
2022/02/01 08:08:58;;;;;;;;;;;21.40;32.70;;;;;;466531;255;1230;-38
2022/02/01 08:10:59;;;;;;;;;;;21.40;32.70;;;;;;466834;255;1435;-38
2022/02/01 08:17:46;;;;;;;;;;;21.40;32.60;;;;;;466474;255;2195;-38
2022/02/01 08:19:55;;;;;;;;;;;21.50;32.60;;;;;;466162;255;2270;-38
2022/02/01 08:21:47;;;;;;;;;;;21.40;32.60;;;;;;466024;254;2240;-38
2022/02/01 08:23:46;;;;;;;;;;;21.40;32.70;;;;;;466728;255;1407;-38
2022/02/01 08:25:47;;;;;;;;;;;21.40;32.70;;;;;;466497;251;1356;-38
2022/02/01 08:27:48;;;;;;;;;;;21.40;32.90;;;;;;466615;255;1229;-38
2022/02/01 08:29:50;;;;;;;;;;;21.40;32.90;;;;;;466511;255;1102;-38
2022/02/01 08:31:51;;;;;;;;;;;21.40;33.00;;;;;;466439;255;1306;-38
2022/02/01 08:33:53;;;;;;;;;;;21.50;33.00;;;;;;466610;255;1138;-38
2022/02/01 08:35:54;;;;;;;;;;;21.50;33.00;;;;;;466488;255;2140;-38
2022/02/01 08:37:55;;;;;;;;;;;21.50;33.00;;;;;;466420;255;1269;-38
2022/02/01 08:39:59;;;;;;;;;;;21.50;33.00;;;;;;466646;255;1108;-38
2022/02/01 08:42:00;;;;;;;;;;;21.50;33.10;;;;;;466605;255;1214;-38
2022/02/01 08:44:02;;;;;;;;;;;21.50;33.20;;;;;;466558;255;1249;-38
2022/02/01 08:46:03;;;;;;;;;;;21.50;33.20;;;;;;466405;254;1380;-38
2022/02/01 08:48:04;;;;;;;;;;;21.50;33.20;;;;;;466856;255;1241;-38
2022/02/01 08:50:06;;;;;;;;;;;21.50;33.30;;;;;;466969;255;1103;-38
2022/02/01 08:52:10;;;;;;;;;;;21.50;33.40;;;;;;465732;245;3788;-40
2022/02/01 08:54:14;;;;;;;;;;;21.50;33.50;;;;;;475003;250;1198;-40
2022/02/01 08:57:20;;;;;;;;;;;21.50;33.70;;;;;;474610;250;2199;-39
2022/02/01 08:58:11;;;;;;;;;;;21.60;33.60;;;;;;473766;245;1279;-39
2022/02/01 09:00:15;;;;;;;;;;;21.60;33.60;;;;;;474907;250;1344;-39
2022/02/01 09:02:14;;;;;;;;;;;21.60;33.70;;;;;;474727;250;2047;-39
2022/02/01 09:04:15;;;;;;;;;;;21.60;33.70;;;;;;475301;250;993;-39
2022/02/01 09:06:16;;;;;;;;;;;21.60;33.80;;;;;;474964;250;1231;-40
2022/02/01 09:08:18;;;;;;;;;;;21.60;33.80;;;;;;474997;250;1202;-39
2022/02/01 09:10:19;;;;;;;;;;;21.60;33.90;;;;;;475130;250;1299;-39
2022/02/01 09:12:20;;;;;;;;;;;21.60;33.90;;;;;;475134;250;1247;-39
2022/02/01 09:14:22;;;;;;;;;;;21.60;34.10;;;;;;474982;250;1462;-39
2022/02/01 09:16:23;;;;;;;;;;;21.50;34.10;;;;;;474815;250;2192;-39
2022/02/01 09:18:24;;;;;;;;;;;21.60;34.30;;;;;;474823;250;1465;-39
2022/02/01 09:20:26;;;;;;;;;;;21.50;34.40;;;;;;475010;250;1106;-39
2022/02/01 09:22:27;;;;;;;;;;;21.50;34.40;;;;;;474946;250;1227;-39
2022/02/01 09:24:29;;;;;;;;;;;21.50;34.60;;;;;;475028;250;1086;-40
2022/02/01 09:26:31;;;;;;;;;;;21.50;34.50;;;;;;474857;250;1399;-40
2022/02/01 09:28:32;;;;;;;;;;;21.60;34.40;;;;;;474972;250;1251;-39
2022/02/01 09:30:34;;;;;;;;;;;21.60;34.60;;;;;;474980;250;1050;-39
2022/02/01 09:32:35;;;;;;;;;;;21.50;34.60;;;;;;474796;250;1216;-39
2022/02/01 09:34:36;;;;;;;;;;;21.40;35.20;;;;;;474981;250;1071;-39
2022/02/01 09:36:37;;;;;;;;;;;21.40;35.00;;;;;;474926;250;2184;-39
2022/02/01 09:38:39;;;;;;;;;;;21.30;35.20;;;;;;475010;250;1101;-38
2022/02/01 09:40:40;;;;;;;;;;;21.30;35.00;;;;;;474854;250;1119;-38
2022/02/01 09:42:41;;;;;;;;;;;21.30;35.30;;;;;;474898;250;1327;-38
2022/02/01 09:44:44;;;;;;;;;;;21.40;35.30;;;;;;474979;250;1309;-38
2022/02/01 09:46:44;;;;;;;;;;;21.30;35.30;;;;;;474947;250;1824;-38
2022/02/01 09:48:45;;;;;;;;;;;21.40;35.40;;;;;;475134;250;1282;-38
2022/02/01 09:50:47;;;;;;;;;;;21.40;35.30;;;;;;474976;250;1458;-38
2022/02/01 09:52:48;;;;;;;;;;;21.40;35.30;;;;;;474891;250;1308;-38
2022/02/01 09:54:51;;;;;;;;;;;21.40;35.40;;;;;;475002;250;1176;-38
2022/02/01 09:56:51;;;;;;;;;;;21.40;35.40;;;;;;474985;250;2204;-38
2022/02/01 09:58:55;;;;;;;;;;;21.40;35.40;;;;;;475024;251;1393;-38
2022/02/01 10:00:55;;;;;;;;;;;21.40;35.50;;;;;;474862;250;1363;-38
2022/02/01 10:02:57;;;;;;;;;;;21.30;35.50;;;;;;474967;250;2203;-38
2022/02/01 10:04:57;;;;;;;;;;;21.30;35.70;;;;;;474906;250;2204;-38
2022/02/01 10:06:58;;;;;;;;;;;21.30;35.70;;;;;;474975;250;1200;-38
2022/02/01 10:08:59;;;;;;;;;;;21.30;35.70;;;;;;474976;251;1157;-38
2022/02/01 10:11:01;;;;;;;;;;;21.30;35.60;;;;;;475139;247;1368;-38
2022/02/01 10:13:03;;;;;;;;;;;21.30;35.60;;;;;;475076;250;1114;-39
2022/02/01 10:15:07;;;;;;;;;;;21.30;35.60;;;;;;474973;250;1752;-38
2022/02/01 10:17:08;;;;;;;;;;;21.30;35.70;;;;;;474871;250;2218;-38
2022/02/01 10:19:07;;;;;;;;;;;21.30;35.80;;;;;;474800;250;1896;-38
2022/02/01 10:21:08;;;;;;;;;;;21.30;35.90;;;;;;474885;250;1119;-38
2022/02/01 10:23:09;;;;;;;;;;;21.30;35.80;;;;;;475098;251;1198;-38
2022/02/01 10:25:11;;;;;;;;;;;21.30;35.90;;;;;;475497;250;1214;-38
2022/02/01 10:27:13;;;;;;;;;;;21.30;35.90;;;;;;475131;250;1474;-38
2022/02/01 10:29:19;;;;;;;;;;;21.30;36.10;;;;;;474877;251;1394;-38
2022/02/01 10:31:18;;;;;;;;;;;21.30;36.10;;;;;;474838;250;2022;-38
2022/02/01 10:33:41;;;;;;;;;;;21.30;36.20;;;;;;474783;251;1378;-38
2022/02/01 10:35:31;;;;;;;;;;;21.20;36.20;;;;;;473649;250;1271;-38
2022/02/01 10:37:26;;;;;;;;;;;21.30;36.30;;;;;;474627;250;2200;-38
2022/02/01 10:39:27;;;;;;;;;;;21.30;36.30;;;;;;475232;251;1248;-38
2022/02/01 10:41:29;;;;;;;;;;;21.20;36.30;;;;;;475009;250;1320;-38
2022/02/01 10:43:30;;;;;;;;;;;21.30;36.40;;;;;;474974;250;1192;-38
2022/02/01 10:45:32;;;;;;;;;;;21.20;36.50;;;;;;475047;250;1179;-38
2022/02/01 10:47:34;;;;;;;;;;;21.20;36.50;;;;;;475266;250;1231;-38
2022/02/01 10:49:35;;;;;;;;;;;21.20;36.50;;;;;;474843;250;2052;-38
2022/02/01 10:51:36;;;;;;;;;;;21.30;36.50;;;;;;474849;250;1339;-38
2022/02/01 10:53:37;;;;;;;;;;;21.30;36.40;;;;;;475244;251;1190;-38
2022/02/01 10:55:38;;;;;;;;;;;21.30;36.40;;;;;;475128;250;1144;-38
2022/02/01 10:57:40;;;;;;;;;;;21.30;36.50;;;;;;475111;251;2113;-38
2022/02/01 10:59:41;;;;;;;;;;;21.30;36.60;;;;;;475048;250;1059;-38
2022/02/01 11:01:42;;;;;;;;;;;21.20;36.70;;;;;;474873;250;1317;-38
2022/02/01 11:03:44;;;;;;;;;;;21.30;36.70;;;;;;474883;250;1255;-38
2022/02/01 11:05:45;;;;;;;;;;;21.30;36.60;;;;;;474912;250;1156;-38
2022/02/01 11:07:47;;;;;;;;;;;21.30;36.60;;;;;;475095;250;1303;-38
2022/02/01 11:09:48;;;;;;;;;;;21.30;36.60;;;;;;474892;250;1210;-38
2022/02/01 11:11:49;;;;;;;;;;;21.30;36.60;;;;;;474982;250;1150;-38
2022/02/01 11:13:51;;;;;;;;;;;21.40;36.60;;;;;;474824;251;1094;-38
2022/02/01 11:15:52;;;;;;;;;;;21.40;36.60;;;;;;474908;250;1265;-38
2022/02/01 11:17:53;;;;;;;;;;;21.40;36.40;;;;;;474877;250;2149;-38
2022/02/01 11:19:55;;;;;;;;;;;21.40;36.30;;;;;;474947;251;1078;-38
2022/02/01 11:21:56;;;;;;;;;;;21.40;36.20;;;;;;475044;251;1338;-38
2022/02/01 11:24:00;;;;;;;;;;;21.40;36.10;;;;;;475044;250;1228;-38
2022/02/01 11:26:08;;;;;;;;;;;21.40;36.10;;;;;;474790;250;2199;-38
2022/02/01 11:28:11;;;;;;;;;;;21.40;36.10;;;;;;474442;250;2199;-38
2022/02/01 11:30:11;;;;;;;;;;;21.50;36.00;;;;;;474339;250;2341;-38
2022/02/01 11:32:05;;;;;;;;;;;21.50;35.90;;;;;;474369;246;1383;-38
2022/02/01 11:34:06;;;;;;;;;;;21.50;35.80;;;;;;474963;251;1086;-38
2022/02/01 11:36:07;;;;;;;;;;;21.50;35.70;;;;;;474985;251;1245;-38
2022/02/01 11:38:09;;;;;;;;;;;21.60;35.60;;;;;;474764;251;2188;-39
2022/02/01 11:40:10;;;;;;;;;;;21.70;35.50;;;;;;474956;251;1220;-38
2022/02/01 11:42:11;;;;;;;;;;;21.70;35.40;;;;;;474946;250;1086;-38
2022/02/01 11:44:13;;;;;;;;;;;21.70;35.30;;;;;;475082;250;1086;-39
2022/02/01 11:46:14;;;;;;;;;;;21.70;35.20;;;;;;475099;250;1331;-38
2022/02/01 11:48:16;;;;;;;;;;;21.80;35.30;;;;;;475791;250;1172;-38
2022/02/01 11:50:18;;;;;;;;;;;21.80;35.30;;;;;;475009;251;1083;-38
2022/02/01 11:52:18;;;;;;;;;;;21.70;35.30;;;;;;474956;251;1318;-38
2022/02/01 11:54:20;;;;;;;;;;;21.70;35.30;;;;;;474927;251;1299;-38
2022/02/01 11:56:22;;;;;;;;;;;21.70;35.40;;;;;;474913;251;1329;-38
2022/02/01 11:58:22;;;;;;;;;;;21.60;35.50;;;;;;475079;250;2257;-38
2022/02/01 12:00:25;;;;;;;;;;;21.50;35.50;;;;;;474911;250;1369;-38
2022/02/01 12:02:26;;;;;;;;;;;21.40;35.70;;;;;;474965;251;2155;-38
2022/02/01 12:04:26;;;;;;;;;;;21.40;35.70;;;;;;474526;250;2007;-38
2022/02/01 12:06:28;;;;;;;;;;;21.40;35.80;;;;;;474559;250;1345;-38
2022/02/01 12:08:31;;;;;;;;;;;21.30;35.80;;;;;;474567;250;1364;-38
2022/02/01 12:10:30;;;;;;;;;;;21.30;35.80;;;;;;474693;250;2350;-38
2022/02/01 12:12:33;;;;;;;;;;;21.30;35.80;;;;;;474806;250;1222;-38
2022/02/01 12:14:33;;;;;;;;;;;21.30;35.80;;;;;;474741;250;2371;-38
2022/02/01 12:16:34;;;;;;;;;;;21.30;35.80;;;;;;474754;250;1410;-38
2022/02/01 12:18:35;;;;;;;;;;;21.30;35.70;;;;;;474779;250;2145;-38
2022/02/01 12:20:37;;;;;;;;;;;21.30;35.70;;;;;;474839;250;1161;-38
2022/02/01 12:22:39;;;;;;;;;;;21.20;35.70;;;;;;474873;250;1250;-38
2022/02/01 12:24:40;;;;;;;;;;;21.30;35.70;;;;;;475621;250;1510;-38
2022/02/01 12:26:41;;;;;;;;;;;21.30;35.70;;;;;;474738;250;1363;-38
2022/02/01 12:28:42;;;;;;;;;;;21.30;35.50;;;;;;474808;250;1253;-38
2022/02/01 12:30:44;;;;;;;;;;;21.40;35.50;;;;;;474684;251;1257;-38
2022/02/01 12:32:45;;;;;;;;;;;21.30;35.40;;;;;;474899;251;1447;-38
2022/02/01 12:34:47;;;;;;;;;;;21.40;35.40;;;;;;474995;250;1232;-38
2022/02/01 12:36:49;;;;;;;;;;;21.30;35.40;;;;;;474942;251;2164;-38
2022/02/01 12:38:50;;;;;;;;;;;21.40;35.30;;;;;;475531;250;2196;-38
2022/02/01 12:40:50;;;;;;;;;;;21.40;35.30;;;;;;475144;251;2022;-38
2022/02/01 12:42:53;;;;;;;;;;;21.40;35.20;;;;;;475628;250;1148;-38
2022/02/01 12:47:12;;;;;;;;;;;21.40;35.20;;;;;;475541;249;1249;-38
2022/02/01 12:49:14;;;;;;;;;;;21.40;35.10;;;;;;475046;250;1257;-38
2022/02/01 12:51:15;;;;;;;;;;;21.40;35.00;;;;;;474685;250;1230;-39
2022/02/01 12:53:16;;;;;;;;;;;21.40;35.00;;;;;;475593;250;1067;-38
2022/02/01 12:55:19;;;;;;;;;;;21.40;35.00;;;;;;474867;247;1257;-38
2022/02/01 12:57:20;;;;;;;;;;;21.40;35.00;;;;;;475174;250;1272;-38